createdAt,value
2023-04-16T00:02:43.908Z,8.39
2023-04-16T00:05:43.832Z,8.31
2023-04-16T00:08:43.868Z,8.31
2023-04-16T00:11:43.828Z,8.28
2023-04-16T00:14:43.854Z,8.28
2023-04-16T00:17:43.892Z,8.26
2023-04-16T00:20:43.893Z,8.21
2023-04-16T00:23:43.903Z,8.21
2023-04-16T00:26:43.889Z,8.21
2023-04-16T00:29:43.930Z,8.19
2023-04-16T00:32:43.992Z,8.14
2023-04-16T00:35:43.971Z,8.14
2023-04-16T00:38:43.987Z,8.15
2023-04-16T00:41:44.003Z,8.09
2023-04-16T00:44:44.030Z,8.08
2023-04-16T00:47:44.086Z,8.08
2023-04-16T00:50:44.053Z,8.01
2023-04-16T00:53:44.082Z,8.04
2023-04-16T00:56:44.098Z,8.06
2023-04-16T00:59:44.114Z,8.01
2023-04-16T01:02:44.212Z,8.02
2023-04-16T01:05:44.143Z,8.01
2023-04-16T01:08:44.155Z,7.95
2023-04-16T01:11:44.174Z,7.95
2023-04-16T01:14:44.230Z,7.89
2023-04-16T01:17:44.251Z,7.88
2023-04-16T01:20:44.249Z,7.9
2023-04-16T01:23:44.270Z,7.85
2023-04-16T01:26:44.294Z,7.85
2023-04-16T01:29:44.291Z,7.85
2023-04-16T01:32:44.311Z,7.79
2023-04-16T01:35:44.338Z,7.79
2023-04-16T01:38:44.362Z,7.79
2023-04-16T01:41:44.393Z,7.79
2023-04-16T01:44:44.418Z,7.79
2023-04-16T01:47:44.515Z,7.74
2023-04-16T01:50:44.460Z,7.75
2023-04-16T01:53:44.464Z,7.69
2023-04-16T01:56:44.498Z,7.69
2023-04-16T01:59:44.526Z,7.7
2023-04-16T02:02:44.647Z,7.7
2023-04-16T02:05:44.572Z,7.69
2023-04-16T02:08:44.590Z,7.69
2023-04-16T02:11:44.596Z,7.69
2023-04-16T02:14:44.599Z,7.69
2023-04-16T02:17:44.620Z,7.63
2023-04-16T02:20:44.637Z,7.69
2023-04-16T02:23:44.659Z,7.65
2023-04-16T02:26:44.671Z,7.67
2023-04-16T02:29:44.679Z,7.65
2023-04-16T02:32:44.732Z,7.66
2023-04-16T02:35:44.714Z,7.64
2023-04-16T02:38:44.720Z,7.59
2023-04-16T02:41:44.738Z,7.59
2023-04-16T02:44:44.750Z,7.59
2023-04-16T02:47:44.857Z,7.58
2023-04-16T02:50:44.785Z,7.59
2023-04-16T02:53:44.807Z,7.57
2023-04-16T02:56:44.825Z,7.58
2023-04-16T02:59:44.856Z,7.55
2023-04-16T03:02:44.912Z,7.54
2023-04-16T03:05:44.883Z,7.6
2023-04-16T03:08:44.894Z,7.54
2023-04-16T03:11:44.924Z,7.55
2023-04-16T03:14:44.938Z,7.56
2023-04-16T03:17:44.950Z,7.55
2023-04-16T03:20:44.960Z,7.56
2023-04-16T03:23:44.981Z,7.57
2023-04-16T03:26:44.997Z,7.52
2023-04-16T03:29:45.004Z,7.54
2023-04-16T03:32:45.098Z,7.55
2023-04-16T03:35:45.043Z,7.55
2023-04-16T03:38:45.042Z,7.57
2023-04-16T03:41:45.055Z,7.51
2023-04-16T03:44:45.060Z,7.53
2023-04-16T03:47:45.178Z,7.53
2023-04-16T03:50:45.079Z,7.52
2023-04-16T03:53:45.070Z,7.52
2023-04-16T03:56:45.075Z,7.51
2023-04-16T03:59:45.074Z,7.51
2023-04-16T04:02:45.201Z,7.51
2023-04-16T04:05:45.087Z,7.45
2023-04-16T04:08:45.096Z,7.45
2023-04-16T04:11:45.101Z,7.51
2023-04-16T04:14:45.110Z,7.45
2023-04-16T04:17:45.135Z,7.46
2023-04-16T04:20:45.130Z,7.46
2023-04-16T04:23:45.127Z,7.45
2023-04-16T04:26:45.136Z,7.44
2023-04-16T04:29:45.143Z,7.45
2023-04-16T04:32:45.159Z,7.45
2023-04-16T04:35:45.150Z,7.46
2023-04-16T04:38:45.149Z,7.46
2023-04-16T04:41:45.152Z,7.44
2023-04-16T04:44:45.157Z,7.45
2023-04-16T04:47:45.173Z,7.45
2023-04-16T04:50:45.169Z,7.45
2023-04-16T04:53:45.184Z,7.45
2023-04-16T04:56:45.193Z,7.46
2023-04-16T04:59:45.181Z,7.46
2023-04-16T05:02:45.323Z,7.45
2023-04-16T05:05:45.192Z,7.47
2023-04-16T05:08:45.213Z,7.43
2023-04-16T05:11:45.199Z,7.5
2023-04-16T05:14:45.287Z,7.49
2023-04-16T05:17:45.244Z,7.5
2023-04-16T05:20:45.242Z,7.5
2023-04-16T05:23:45.233Z,7.5
2023-04-16T05:26:45.242Z,7.46
2023-04-16T05:29:45.233Z,7.5
2023-04-16T05:32:45.255Z,7.5
2023-04-16T05:35:45.253Z,7.5
2023-04-16T05:38:45.247Z,7.5
2023-04-16T05:41:45.251Z,7.5
2023-04-16T05:44:45.256Z,7.5
2023-04-16T05:47:45.283Z,7.49
2023-04-16T05:50:45.267Z,7.54
2023-04-16T05:53:45.274Z,7.54
2023-04-16T05:56:45.289Z,7.54
2023-04-16T05:59:45.289Z,7.53
2023-04-16T06:02:45.368Z,7.53
2023-04-16T06:05:45.357Z,7.53
2023-04-16T06:08:45.295Z,7.54
2023-04-16T06:11:45.300Z,7.54
2023-04-16T06:14:45.304Z,7.59
2023-04-16T06:17:45.334Z,7.59
2023-04-16T06:20:45.316Z,7.59
2023-04-16T06:23:45.313Z,7.64
2023-04-16T06:26:45.328Z,7.64
2023-04-16T06:29:45.328Z,7.69
2023-04-16T06:32:45.341Z,7.69
2023-04-16T06:35:45.320Z,7.68
2023-04-16T06:38:45.326Z,7.67
2023-04-16T06:41:45.338Z,7.66
2023-04-16T06:44:45.334Z,7.65
2023-04-16T06:47:45.359Z,7.64
2023-04-16T06:50:45.353Z,7.64
2023-04-16T06:53:45.366Z,7.63
2023-04-16T06:56:45.352Z,7.63
2023-04-16T06:59:45.366Z,7.62
2023-04-16T07:02:45.478Z,7.63
2023-04-16T07:05:45.379Z,7.63
2023-04-16T07:08:45.382Z,7.62
2023-04-16T07:11:45.400Z,7.61
2023-04-16T07:14:45.376Z,7.63
2023-04-16T07:17:45.410Z,7.63
2023-04-16T07:20:45.403Z,7.63
2023-04-16T07:23:45.389Z,7.63
2023-04-16T07:26:45.421Z,7.59
2023-04-16T07:29:45.395Z,7.6
2023-04-16T07:32:45.444Z,7.6
2023-04-16T07:35:45.426Z,7.6
2023-04-16T07:38:45.429Z,7.59
2023-04-16T07:41:45.416Z,7.59
2023-04-16T07:44:45.429Z,7.59
2023-04-16T07:47:45.470Z,7.58
2023-04-16T07:50:45.434Z,7.63
2023-04-16T07:53:45.432Z,7.63
2023-04-16T07:56:45.437Z,7.6
2023-04-16T07:59:45.462Z,7.6
2023-04-16T08:02:45.554Z,7.6
2023-04-16T08:05:45.467Z,7.65
2023-04-16T08:08:45.473Z,7.62
2023-04-16T08:11:45.468Z,7.67
2023-04-16T08:14:45.482Z,7.68
2023-04-16T08:17:45.521Z,7.71
2023-04-16T08:20:45.475Z,7.68
2023-04-16T08:23:45.499Z,7.7
2023-04-16T08:26:45.506Z,7.69
2023-04-16T08:29:45.520Z,7.74
2023-04-16T08:32:46.399Z,7.76
2023-04-16T08:35:45.518Z,7.73
2023-04-16T08:38:45.512Z,7.8
2023-04-16T08:41:45.520Z,7.76
2023-04-16T08:44:46.405Z,7.76
2023-04-16T08:47:45.551Z,7.8
2023-04-16T08:50:45.551Z,7.76
2023-04-16T08:53:45.536Z,7.78
2023-04-16T08:56:45.554Z,7.77
2023-04-16T08:59:45.558Z,7.79
2023-04-16T09:02:45.662Z,7.74
2023-04-16T09:05:45.543Z,7.74
2023-04-16T09:08:45.565Z,7.74
2023-04-16T09:11:45.573Z,7.78
2023-04-16T09:14:45.577Z,7.84
2023-04-16T09:17:45.598Z,7.83
2023-04-16T09:20:45.587Z,7.88
2023-04-16T09:23:45.591Z,7.94
2023-04-16T09:26:45.602Z,7.84
2023-04-16T09:29:45.604Z,7.84
2023-04-16T09:32:45.638Z,7.83
2023-04-16T09:35:45.596Z,7.95
2023-04-16T09:38:45.603Z,7.97
2023-04-16T09:41:45.616Z,8
2023-04-16T09:44:45.614Z,7.96
2023-04-16T09:47:45.682Z,7.99
2023-04-16T09:50:45.640Z,8.03
2023-04-16T09:53:45.657Z,8.05
2023-04-16T09:56:45.645Z,8.02
2023-04-16T09:59:45.645Z,7.83
2023-04-16T10:02:46.241Z,7.93
2023-04-16T10:05:45.645Z,7.95
2023-04-16T10:08:46.206Z,7.99
2023-04-16T10:11:45.666Z,8.02
2023-04-16T10:14:46.513Z,8.1
2023-04-16T10:17:45.693Z,8.07
2023-04-16T10:20:45.680Z,8.11
2023-04-16T10:23:45.672Z,8.13
2023-04-16T10:26:45.672Z,8.06
2023-04-16T10:29:45.685Z,8.1
2023-04-16T10:32:45.696Z,8.13
2023-04-16T10:35:46.860Z,8.21
2023-04-16T10:38:45.685Z,8.25
2023-04-16T10:41:45.687Z,8.39
2023-04-16T10:44:45.746Z,8.24
2023-04-16T10:47:45.712Z,8.24
2023-04-16T10:50:45.707Z,8.23
2023-04-16T10:53:45.696Z,8.2
2023-04-16T10:56:45.702Z,8.31
2023-04-16T10:59:45.707Z,8.24
2023-04-16T11:02:45.890Z,8.27
2023-04-16T11:05:45.714Z,8.32
2023-04-16T11:08:53.738Z,8.34
2023-04-16T11:11:45.718Z,8.3
2023-04-16T11:14:45.733Z,8.3
2023-04-16T11:17:45.779Z,8.32
2023-04-16T11:20:45.735Z,8.37
2023-04-16T11:23:45.742Z,8.35
2023-04-16T11:26:45.749Z,8.43
2023-04-16T11:29:47.506Z,8.48
2023-04-16T11:32:45.837Z,8.45
2023-04-16T11:35:45.761Z,8.45
2023-04-16T11:38:45.770Z,8.53
2023-04-16T11:41:45.768Z,8.58
2023-04-16T11:44:45.772Z,8.64
2023-04-16T11:47:45.835Z,8.62
2023-04-16T11:50:45.772Z,8.57
2023-04-16T11:53:45.789Z,8.6
2023-04-16T11:56:45.786Z,8.69
2023-04-16T12:00:01.256Z,8.69
2023-04-16T12:02:46.034Z,8.6
2023-04-16T12:05:45.806Z,8.61
2023-04-16T12:08:45.801Z,8.73
2023-04-16T12:11:45.804Z,8.67
2023-04-16T12:14:45.812Z,8.69
2023-04-16T12:17:45.839Z,8.74
2023-04-16T12:20:45.832Z,8.71
2023-04-16T12:23:45.829Z,8.74
2023-04-16T12:26:45.834Z,8.73
2023-04-16T12:29:45.840Z,8.81
2023-04-16T12:32:45.846Z,8.74
2023-04-16T12:35:45.852Z,8.73
2023-04-16T12:38:45.853Z,8.71
2023-04-16T12:41:45.853Z,8.79
2023-04-16T12:44:45.860Z,8.68
2023-04-16T12:47:45.887Z,8.85
2023-04-16T12:50:45.867Z,8.9
2023-04-16T12:53:45.873Z,8.89
2023-04-16T12:56:45.879Z,8.97
2023-04-16T12:59:45.883Z,8.82
2023-04-16T13:02:46.030Z,8.79
2023-04-16T13:05:45.894Z,8.51
2023-04-16T13:08:45.892Z,8.53
2023-04-16T13:11:45.902Z,8.64
2023-04-16T13:14:45.904Z,8.56
2023-04-16T13:17:45.926Z,8.5
2023-04-16T13:20:45.923Z,8.45
2023-04-16T13:23:45.924Z,8.47
2023-04-16T13:26:45.925Z,8.49
2023-04-16T13:29:45.931Z,8.38
2023-04-16T13:32:45.991Z,8.37
2023-04-16T13:35:45.939Z,8.41
2023-04-16T13:38:45.951Z,8.41
2023-04-16T13:41:45.957Z,8.34
2023-04-16T13:44:45.958Z,8.33
2023-04-16T13:47:45.969Z,8.36
2023-04-16T13:50:45.962Z,8.35
2023-04-16T13:53:45.964Z,8.38
2023-04-16T13:56:45.971Z,8.4
2023-04-16T13:59:46.002Z,8.36
2023-04-16T14:02:46.161Z,8.41
2023-04-16T14:05:45.985Z,8.44
2023-04-16T14:08:45.989Z,8.36
2023-04-16T14:11:45.998Z,8.35
2023-04-16T14:14:45.995Z,8.34
2023-04-16T14:17:46.040Z,8.37
2023-04-16T14:20:46.007Z,8.41
2023-04-16T14:23:46.094Z,8.43
2023-04-16T14:26:46.091Z,8.48
2023-04-16T14:29:46.097Z,8.52
2023-04-16T14:32:46.116Z,8.57
2023-04-16T14:35:46.117Z,8.5
2023-04-16T14:38:46.098Z,8.54
2023-04-16T14:41:46.099Z,8.48
2023-04-16T14:44:46.107Z,8.41
2023-04-16T14:47:46.263Z,8.42
2023-04-16T14:50:46.108Z,8.4
2023-04-16T14:53:46.105Z,8.38
2023-04-16T14:56:46.110Z,8.34
2023-04-16T14:59:46.112Z,8.42
2023-04-16T15:02:46.195Z,8.24
2023-04-16T15:05:46.109Z,8.27
2023-04-16T15:08:46.156Z,8.26
2023-04-16T15:11:46.115Z,8.33
2023-04-16T15:14:46.118Z,8.22
2023-04-16T15:17:46.168Z,8.29
2023-04-16T15:20:46.128Z,8.25
2023-04-16T15:23:46.128Z,8.28
2023-04-16T15:26:46.129Z,8.28
2023-04-16T15:29:46.119Z,8.3
2023-04-16T15:32:46.133Z,8.31
2023-04-16T15:35:46.129Z,8.3
2023-04-16T15:38:46.125Z,8.26
2023-04-16T15:41:59.664Z,8.24
2023-04-16T15:44:46.129Z,8.21
2023-04-16T15:47:46.135Z,8.13
2023-04-16T15:50:46.134Z,8.17
2023-04-16T15:53:46.132Z,8.14
2023-04-16T15:56:46.137Z,8.12
2023-04-16T15:59:53.020Z,8.14
2023-04-16T16:02:46.347Z,8.04
2023-04-16T16:05:46.143Z,7.99
2023-04-16T16:08:46.187Z,7.95
2023-04-16T16:11:46.147Z,8
2023-04-16T16:14:46.149Z,8.04
2023-04-16T16:17:46.192Z,8.08
2023-04-16T16:20:46.157Z,8.11
2023-04-16T16:23:46.149Z,8.13
2023-04-16T16:26:46.154Z,8.17
2023-04-16T16:29:46.153Z,8.22
2023-04-16T16:32:46.175Z,8.2
2023-04-16T16:35:46.158Z,8.19
2023-04-16T16:38:46.163Z,8.16
2023-04-16T16:41:46.169Z,8.09
2023-04-16T16:44:46.172Z,8.17
2023-04-16T16:47:46.238Z,8.17
2023-04-16T16:50:46.178Z,8.15
2023-04-16T16:53:46.180Z,8.2
2023-04-16T16:56:46.169Z,8.19
2023-04-16T16:59:46.170Z,8.21
2023-04-16T17:02:46.292Z,8.19
2023-04-16T17:05:46.191Z,8.24
2023-04-16T17:08:46.184Z,8.25
2023-04-16T17:11:46.188Z,8.23
2023-04-16T17:14:46.201Z,8.24
2023-04-16T17:17:46.197Z,8.21
2023-04-16T17:20:46.204Z,8.2
2023-04-16T17:23:46.220Z,8.23
2023-04-16T17:26:46.213Z,8.27
2023-04-16T17:29:46.200Z,8.24
2023-04-16T17:32:46.206Z,8.27
2023-04-16T17:35:46.204Z,8.26
2023-04-16T17:38:46.200Z,8.27
2023-04-16T17:41:46.206Z,8.21
2023-04-16T17:44:46.205Z,8.21
2023-04-16T17:47:46.224Z,8.23
2023-04-16T17:50:46.221Z,8.21
2023-04-16T17:53:46.206Z,8.23
2023-04-16T17:56:46.236Z,8.23
2023-04-16T17:59:46.204Z,8.22
2023-04-16T18:02:46.321Z,8.18
2023-04-16T18:05:46.215Z,8.17
2023-04-16T18:08:46.218Z,8.17
2023-04-16T18:11:46.217Z,8.14
2023-04-16T18:14:46.213Z,8.11
2023-04-16T18:17:46.257Z,8.12
2023-04-16T18:20:46.212Z,8.12
2023-04-16T18:23:46.219Z,8.11
2023-04-16T18:26:46.963Z,8.1
2023-04-16T18:29:46.498Z,8.09
2023-04-16T18:33:00.066Z,8.09
2023-04-16T18:35:46.215Z,8.05
2023-04-16T18:38:57.452Z,8.03
2023-04-16T18:41:46.221Z,8.03
2023-04-16T18:44:46.713Z,8.04
2023-04-16T18:47:46.247Z,8.05
2023-04-16T18:50:46.229Z,8
2023-04-16T18:53:46.232Z,8
2023-04-16T18:56:46.224Z,8
2023-04-16T18:59:46.237Z,8.01
2023-04-16T19:02:46.308Z,8.03
2023-04-16T19:05:46.227Z,7.99
2023-04-16T19:08:46.235Z,7.98
2023-04-16T19:11:46.233Z,7.98
2023-04-16T19:14:46.240Z,7.97
2023-04-16T19:17:46.256Z,7.95
2023-04-16T19:20:46.244Z,7.93
2023-04-16T19:23:46.236Z,7.92
2023-04-16T19:26:46.247Z,7.93
2023-04-16T19:29:46.247Z,7.93
2023-04-16T19:32:46.276Z,7.93
2023-04-16T19:35:46.275Z,7.94
2023-04-16T19:38:46.250Z,7.95
2023-04-16T19:41:46.249Z,7.96
2023-04-16T19:44:46.252Z,7.96
2023-04-16T19:47:46.267Z,7.96
2023-04-16T19:50:46.249Z,7.96
2023-04-16T19:53:46.251Z,7.92
2023-04-16T19:56:46.263Z,7.92
2023-04-16T19:59:46.266Z,7.92
2023-04-16T20:02:46.287Z,7.92
2023-04-16T20:05:46.256Z,7.93
2023-04-16T20:08:46.260Z,7.93
2023-04-16T20:11:46.262Z,7.94
2023-04-16T20:14:46.270Z,7.92
2023-04-16T20:17:46.315Z,7.93
2023-04-16T20:20:46.268Z,7.95
2023-04-16T20:23:46.290Z,7.96
2023-04-16T20:26:46.275Z,7.94
2023-04-16T20:29:46.279Z,7.94
2023-04-16T20:32:46.290Z,7.94
2023-04-16T20:35:46.283Z,7.89
2023-04-16T20:38:46.283Z,7.94
2023-04-16T20:41:46.285Z,7.93
2023-04-16T20:44:46.302Z,7.88
2023-04-16T20:47:46.322Z,7.88
2023-04-16T20:50:46.313Z,7.88
2023-04-16T20:53:46.295Z,7.88
2023-04-16T20:56:46.305Z,7.87
2023-04-16T20:59:46.322Z,7.86
2023-04-16T21:02:46.377Z,7.86
2023-04-16T21:05:46.321Z,7.86
2023-04-16T21:08:46.385Z,7.86
2023-04-16T21:11:46.329Z,7.86
2023-04-16T21:14:46.339Z,7.82
2023-04-16T21:17:46.365Z,7.82
2023-04-16T21:20:46.364Z,7.81
2023-04-16T21:23:46.340Z,7.78
2023-04-16T21:26:46.349Z,7.82
2023-04-16T21:29:46.347Z,7.81
2023-04-16T21:32:46.372Z,7.8
2023-04-16T21:35:46.347Z,7.79
2023-04-16T21:38:46.341Z,7.77
2023-04-16T21:41:46.341Z,7.77
2023-04-16T21:44:46.343Z,7.75
2023-04-16T21:47:46.460Z,7.69
2023-04-16T21:50:46.360Z,7.69
2023-04-16T21:53:46.368Z,7.64
2023-04-16T21:56:46.369Z,7.61
2023-04-16T21:59:46.378Z,7.58
2023-04-16T22:02:46.537Z,7.58
2023-04-16T22:05:46.409Z,7.54
2023-04-16T22:08:46.391Z,7.54
2023-04-16T22:11:46.416Z,7.51
2023-04-16T22:14:55.647Z,7.52
2023-04-16T22:17:46.407Z,7.47
2023-04-16T22:20:46.413Z,7.47
2023-04-16T22:23:46.414Z,7.43
2023-04-16T22:26:46.430Z,7.39
2023-04-16T22:29:46.424Z,7.4
2023-04-16T22:32:46.456Z,7.4
2023-04-16T22:35:46.425Z,7.35
2023-04-16T22:38:46.417Z,7.36
2023-04-16T22:41:46.432Z,7.32
2023-04-16T22:44:46.434Z,7.32
2023-04-16T22:47:46.461Z,7.32
2023-04-16T22:50:46.445Z,7.28
2023-04-16T22:53:46.443Z,7.29
2023-04-16T22:56:46.450Z,7.29
2023-04-16T22:59:46.471Z,7.31
2023-04-16T23:02:46.529Z,7.29
2023-04-16T23:05:46.490Z,7.29
2023-04-16T23:08:46.472Z,7.3
2023-04-16T23:11:46.482Z,7.27
2023-04-16T23:14:46.462Z,7.27
2023-04-16T23:17:46.500Z,7.24
2023-04-16T23:20:46.483Z,7.24
2023-04-16T23:23:46.478Z,7.2
2023-04-16T23:26:46.485Z,7.21
2023-04-16T23:29:46.489Z,7.17
2023-04-16T23:32:46.547Z,7.18
2023-04-16T23:35:46.514Z,7.14
2023-04-16T23:38:46.514Z,7.11
2023-04-16T23:41:46.524Z,7.12
2023-04-16T23:44:46.519Z,7.12
2023-04-16T23:47:46.540Z,7.08
2023-04-16T23:50:46.532Z,7.08
2023-04-16T23:53:46.535Z,7.08
2023-04-16T23:56:46.531Z,7.08
2023-04-16T23:59:46.531Z,7.05
